createdAt,value
2022-08-25T00:00:08.080Z,5.90
2022-08-25T00:06:32.329Z,7.82
2022-08-25T00:12:35.881Z,6.55
2022-08-25T00:24:44.359Z,5.15
2022-08-25T00:30:49.783Z,6.00
2022-08-25T00:36:54.890Z,7.75
2022-08-25T00:42:59.110Z,7.57
2022-08-25T00:49:06.297Z,6.93
2022-08-25T00:55:16.977Z,5.72
2022-08-25T01:01:20.579Z,7.88
2022-08-25T01:13:35.061Z,7.03
2022-08-25T01:19:38.579Z,6.07
2022-08-25T01:31:52.326Z,8.18
2022-08-25T01:37:55.846Z,7.93
2022-08-25T01:50:06.142Z,6.13
2022-08-25T01:56:11.616Z,7.78
2022-08-25T02:02:18.295Z,6.65
2022-08-25T02:08:23.222Z,7.10
2022-08-25T02:14:28.596Z,9.45
2022-08-25T02:20:33.538Z,6.80
2022-08-25T02:26:37.461Z,9.07
2022-08-25T02:32:41.090Z,7.95
2022-08-25T02:38:47.169Z,8.52
2022-08-25T02:44:50.746Z,8.93
2022-08-25T02:56:59.988Z,6.13
2022-08-25T03:03:03.507Z,6.03
2022-08-25T03:15:13.525Z,5.20
2022-08-25T03:21:17.882Z,6.72
2022-08-25T03:27:21.410Z,6.35
2022-08-25T03:39:30.086Z,6.43
2022-08-25T03:45:33.651Z,5.38
2022-08-25T03:57:43.987Z,5.82
2022-08-25T04:09:52.278Z,5.37
2022-08-25T04:15:55.847Z,6.35
2022-08-25T04:28:04.714Z,5.87
2022-08-25T04:34:14.807Z,7.60
2022-08-25T04:40:33.531Z,7.95
2022-08-25T04:46:39.081Z,6.97
2022-08-25T04:52:42.737Z,6.80
2022-08-25T05:04:52.418Z,8.32
2022-08-25T05:10:56.840Z,7.38
2022-08-25T05:17:00.902Z,6.28
2022-08-25T05:23:06.503Z,5.90
2022-08-25T05:29:12.030Z,8.57
2022-08-25T05:35:16.147Z,9.98
2022-08-25T05:41:23.494Z,10.25
2022-08-25T05:47:28.251Z,9.48
2022-08-25T05:53:34.086Z,6.50
2022-08-25T05:59:39.102Z,7.55
2022-08-25T06:05:42.708Z,6.53
2022-08-25T06:17:52.209Z,8.65
2022-08-25T06:23:55.889Z,12.07
2022-08-25T06:30:00.393Z,9.82
2022-08-25T06:36:13.032Z,9.70
2022-08-25T06:42:16.598Z,12.48
2022-08-25T06:54:24.801Z,9.03
2022-08-25T07:00:30.348Z,11.38
2022-08-25T07:06:36.611Z,9.50
2022-08-25T07:12:41.746Z,10.70
2022-08-25T07:18:45.951Z,8.18
2022-08-25T07:24:49.488Z,10.85
2022-08-25T07:36:59.053Z,10.43
2022-08-25T07:43:10.338Z,6.63
2022-08-25T07:49:16.835Z,8.40
2022-08-25T07:55:21.081Z,9.02
2022-08-25T08:01:25.937Z,9.10
2022-08-25T08:07:42.278Z,9.27
2022-08-25T08:13:50.906Z,8.50
2022-08-25T08:19:55.640Z,9.10
2022-08-25T08:26:01.139Z,8.10
2022-08-25T08:32:06.438Z,9.25
2022-08-25T08:38:17.351Z,7.60
2022-08-25T08:44:29.617Z,8.70
2022-08-25T08:50:40.838Z,10.25
2022-08-25T08:56:48.613Z,7.65
2022-08-25T09:02:59.191Z,8.18
2022-08-25T09:09:06.760Z,9.82
2022-08-25T09:15:18.202Z,9.18
2022-08-25T09:21:32.222Z,7.38
2022-08-25T09:27:42.382Z,7.15
2022-08-25T09:33:46.281Z,7.75
2022-08-25T09:39:51.937Z,6.95
2022-08-25T09:46:00.982Z,6.50
2022-08-25T09:52:36.052Z,8.32
2022-08-25T09:58:41.477Z,7.38
2022-08-25T10:04:45.060Z,9.88
2022-08-25T10:10:57.516Z,7.78
2022-08-25T10:17:17.592Z,5.75
2022-08-25T10:23:21.214Z,7.55
2022-08-25T10:29:40.967Z,8.15
2022-08-25T10:35:56.073Z,6.00
2022-08-25T10:42:10.597Z,8.38
2022-08-25T10:48:38.034Z,7.45
2022-08-25T10:54:51.352Z,6.05
2022-08-25T11:01:08.134Z,6.80
2022-08-25T11:07:21.426Z,6.80
2022-08-25T11:13:42.830Z,10.82
2022-08-25T11:19:50.345Z,8.07
2022-08-25T11:25:57.242Z,7.07
2022-08-25T11:32:02.870Z,7.68
2022-08-25T11:38:23.254Z,9.18
2022-08-25T11:44:53.018Z,7.78
2022-08-25T11:51:03.293Z,9.68
2022-08-25T11:57:11.071Z,7.93
2022-08-25T12:03:53.327Z,7.20
2022-08-25T12:10:15.017Z,9.07
2022-08-25T12:16:41.990Z,8.75
2022-08-25T12:23:00.135Z,10.68
2022-08-25T12:29:12.931Z,10.32
2022-08-25T12:35:29.945Z,9.85
2022-08-25T12:41:33.912Z,9.85
2022-08-25T12:47:43.065Z,8.00
2022-08-25T12:53:52.857Z,8.73
2022-08-25T12:59:59.973Z,12.25
2022-08-25T13:06:23.594Z,13.30
2022-08-25T13:12:34.948Z,11.25
2022-08-25T13:18:40.146Z,12.50
2022-08-25T13:24:47.522Z,12.18
2022-08-25T13:31:16.464Z,9.80
2022-08-25T13:37:33.346Z,10.07
2022-08-25T13:43:39.542Z,9.80
2022-08-25T13:49:47.285Z,12.43
2022-08-25T13:55:54.516Z,8.15
2022-08-25T14:02:02.334Z,11.93
2022-08-25T14:08:16.109Z,14.45
2022-08-25T14:14:35.074Z,10.60
2022-08-25T14:20:46.765Z,8.82
2022-08-25T14:26:53.953Z,12.13
2022-08-25T14:32:58.632Z,8.40
2022-08-25T14:39:06.101Z,10.02
2022-08-25T14:45:12.574Z,8.68
2022-08-25T14:51:16.979Z,9.52
2022-08-25T14:57:21.934Z,10.27
2022-08-25T15:03:31.824Z,10.75
2022-08-25T15:09:35.506Z,8.32
2022-08-25T15:15:52.498Z,10.18
2022-08-25T15:21:57.919Z,8.30
2022-08-25T15:28:05.444Z,7.28
2022-08-25T15:34:15.421Z,9.90
2022-08-25T15:40:20.364Z,8.82
2022-08-25T15:46:26.365Z,8.82
2022-08-25T15:52:44.538Z,9.40
2022-08-25T15:58:51.439Z,12.80
2022-08-25T16:04:55.619Z,10.95
2022-08-25T16:11:01.055Z,9.63
2022-08-25T16:17:05.503Z,9.88
2022-08-25T16:23:09.222Z,11.02
2022-08-25T16:29:15.570Z,11.23
2022-08-25T16:35:20.324Z,8.98
2022-08-25T16:41:35.702Z,11.55
2022-08-25T16:47:42.574Z,10.85
2022-08-25T16:54:04.074Z,9.15
2022-08-25T17:00:12.596Z,10.63
2022-08-25T17:06:17.792Z,11.35
2022-08-25T17:12:21.593Z,13.07
2022-08-25T17:18:25.178Z,11.20
2022-08-25T17:24:44.677Z,12.38
2022-08-25T17:30:57.131Z,10.35
2022-08-25T17:37:00.634Z,13.65
2022-08-25T17:43:05.948Z,12.40
2022-08-25T17:52:39.859Z,10.15
2022-08-25T17:58:44.556Z,11.57
2022-08-25T18:04:48.193Z,11.55
2022-08-25T18:10:53.344Z,11.75
2022-08-25T18:16:57.149Z,14.20
2022-08-25T18:23:00.866Z,12.23
2022-08-25T18:29:06.797Z,10.88
2022-08-25T18:35:10.995Z,12.00
2022-08-25T18:41:22.227Z,13.77
2022-08-25T18:47:27.351Z,12.13
2022-08-25T18:53:37.308Z,10.48
2022-08-25T18:59:53.831Z,12.90
2022-08-25T19:05:58.816Z,15.40
2022-08-25T19:12:03.490Z,11.73
2022-08-25T19:18:09.957Z,12.85
2022-08-25T19:24:16.754Z,12.45
2022-08-25T19:30:24.427Z,12.70
2022-08-25T19:36:30.014Z,17.05
2022-08-25T19:42:38.162Z,16.88
2022-08-25T19:48:42.387Z,14.25
2022-08-25T19:54:50.022Z,11.27
2022-08-25T20:00:56.981Z,14.05
2022-08-25T20:07:00.811Z,17.08
2022-08-25T20:13:05.458Z,12.82
2022-08-25T20:19:11.932Z,14.63
2022-08-25T20:25:18.807Z,14.02
2022-08-25T20:31:24.886Z,15.95
2022-08-25T20:37:29.838Z,14.40
2022-08-25T20:43:33.426Z,12.02
2022-08-25T20:49:39.194Z,12.48
2022-08-25T20:55:44.571Z,13.05
2022-08-25T21:01:49.141Z,16.45
2022-08-25T21:07:52.749Z,11.07
2022-08-25T21:13:59.378Z,13.52
2022-08-25T21:20:03.100Z,14.43
2022-08-25T21:26:08.273Z,14.45
2022-08-25T21:32:13.208Z,13.10
2022-08-25T21:38:16.881Z,12.40
2022-08-25T21:44:21.483Z,13.18
2022-08-25T21:50:26.430Z,14.52
2022-08-25T21:56:31.566Z,12.77
2022-08-25T22:02:35.426Z,17.38
2022-08-25T22:08:41.526Z,17.95
2022-08-25T22:14:45.859Z,12.38
2022-08-25T22:20:50.553Z,15.75
2022-08-25T22:26:55.421Z,16.10
2022-08-25T22:32:59.707Z,11.05
2022-08-25T22:39:05.410Z,18.48
2022-08-25T22:45:12.190Z,12.52
2022-08-25T22:51:18.741Z,13.55
2022-08-25T22:57:22.969Z,15.48
2022-08-25T23:03:29.357Z,16.33
2022-08-25T23:09:33.765Z,13.40
2022-08-25T23:15:38.289Z,15.77
2022-08-25T23:22:01.277Z,13.20
2022-08-25T23:28:04.880Z,15.07
2022-08-25T23:34:08.472Z,14.93
2022-08-25T23:40:14.292Z,12.32
2022-08-25T23:46:25.484Z,12.93
2022-08-25T23:52:29.305Z,16.13
2022-08-25T23:58:34.284Z,17.67
